createdAt,value
2018-08-21T00:02:34.144Z,76.00
2018-08-21T00:05:02.602Z,76.13
2018-08-21T00:07:31.192Z,76.13
2018-08-21T00:09:59.444Z,76.30
2018-08-21T00:12:27.744Z,76.71
2018-08-21T00:15:07.277Z,77.28
2018-08-21T00:17:35.547Z,76.31
2018-08-21T00:20:07.665Z,77.10
2018-08-21T00:22:35.961Z,77.12
2018-08-21T00:25:04.265Z,76.99
2018-08-21T00:27:32.533Z,77.01
2018-08-21T00:30:00.825Z,78.02
2018-08-21T00:32:29.109Z,78.03
2018-08-21T00:34:57.349Z,78.44
2018-08-21T00:37:25.629Z,78.67
2018-08-21T00:39:53.897Z,78.86
2018-08-21T00:42:22.237Z,78.17
2018-08-21T00:44:54.729Z,79.24
2018-08-21T00:47:23.051Z,78.74
2018-08-21T00:49:51.320Z,78.97
2018-08-21T00:52:19.709Z,79.14
2018-08-21T00:54:47.988Z,79.57
2018-08-21T00:57:16.242Z,79.75
2018-08-21T00:59:44.525Z,79.91
2018-08-21T01:02:12.765Z,79.76
2018-08-21T01:04:41.056Z,79.92
2018-08-21T01:07:09.317Z,79.65
2018-08-21T01:09:37.593Z,79.99
2018-08-21T01:12:06.212Z,79.62
2018-08-21T01:14:35.565Z,79.50
2018-08-21T01:17:03.846Z,78.26
2018-08-21T01:19:32.117Z,78.34
2018-08-21T01:22:00.389Z,78.53
2018-08-21T01:24:28.653Z,78.95
2018-08-21T01:26:56.897Z,78.91
2018-08-21T01:29:25.160Z,78.64
2018-08-21T01:31:53.496Z,78.75
2018-08-21T01:34:21.721Z,78.64
2018-08-21T01:36:50.054Z,78.34
2018-08-21T01:39:18.298Z,78.84
2018-08-21T01:41:47.673Z,78.52
2018-08-21T01:44:15.925Z,78.58
2018-08-21T01:46:48.937Z,78.96
2018-08-21T01:49:17.181Z,78.38
2018-08-21T01:51:45.441Z,78.55
2018-08-21T01:54:16.429Z,78.72
2018-08-21T01:56:44.921Z,78.68
2018-08-21T01:59:13.806Z,78.69
2018-08-21T02:01:42.096Z,79.17
2018-08-21T02:04:10.350Z,77.96
2018-08-21T02:06:38.625Z,78.18
2018-08-21T02:09:11.249Z,78.36
2018-08-21T02:11:40.854Z,78.47
2018-08-21T02:14:09.925Z,78.57
2018-08-21T02:16:38.948Z,78.28
2018-08-21T02:19:07.501Z,78.79
2018-08-21T02:21:35.989Z,78.72
2018-08-21T02:24:04.267Z,79.12
2018-08-21T02:26:32.549Z,80.35
2018-08-21T02:29:00.808Z,79.88
2018-08-21T02:31:29.062Z,79.76
2018-08-21T02:33:57.613Z,80.33
2018-08-21T02:36:25.971Z,81.05
2018-08-21T02:38:54.281Z,81.22
2018-08-21T02:41:22.549Z,81.37
2018-08-21T02:43:50.826Z,80.74
2018-08-21T02:46:26.748Z,80.73
2018-08-21T02:48:57.425Z,81.40
2018-08-21T02:51:35.314Z,82.18
2018-08-21T02:54:04.021Z,81.27
2018-08-21T02:56:32.288Z,80.88
2018-08-21T02:59:01.192Z,80.84
2018-08-21T03:01:37.996Z,81.40
2018-08-21T03:04:13.713Z,81.01
2018-08-21T03:06:42.084Z,80.48
2018-08-21T03:09:13.854Z,80.87
2018-08-21T03:11:42.836Z,81.47
2018-08-21T03:14:11.157Z,81.76
2018-08-21T03:16:39.451Z,81.93
2018-08-21T03:19:08.002Z,82.16
2018-08-21T03:21:36.309Z,82.09
2018-08-21T03:24:04.827Z,81.45
2018-08-21T03:26:33.081Z,81.41
2018-08-21T03:29:01.377Z,80.82
2018-08-21T03:31:29.637Z,81.64
2018-08-21T03:33:57.920Z,81.94
2018-08-21T03:36:28.153Z,81.87
2018-08-21T03:38:56.441Z,82.03
2018-08-21T03:41:24.745Z,81.94
2018-08-21T03:43:53.097Z,82.24
2018-08-21T03:46:21.393Z,82.25
2018-08-21T03:48:49.751Z,81.63
2018-08-21T03:51:19.108Z,81.50
2018-08-21T03:53:53.654Z,82.40
2018-08-21T03:56:22.369Z,81.57
2018-08-21T03:58:50.633Z,81.17
2018-08-21T04:01:18.927Z,80.18
2018-08-21T04:03:52.633Z,79.79
2018-08-21T04:06:29.358Z,79.41
2018-08-21T04:08:57.729Z,79.18
2018-08-21T04:11:26.369Z,78.93
2018-08-21T04:13:58.020Z,77.92
2018-08-21T04:16:26.350Z,77.92
2018-08-21T04:18:55.637Z,77.03
2018-08-21T04:21:28.153Z,76.20
2018-08-21T04:23:56.793Z,75.97
2018-08-21T04:26:26.409Z,75.50
2018-08-21T04:28:55.708Z,75.38
2018-08-21T04:31:24.003Z,74.63
2018-08-21T04:33:55.919Z,73.79
2018-08-21T04:36:24.178Z,74.19
2018-08-21T04:38:53.532Z,73.91
2018-08-21T04:41:21.836Z,74.22
2018-08-21T04:43:50.129Z,74.08
2018-08-21T04:46:19.409Z,73.67
2018-08-21T04:48:48.209Z,73.06
2018-08-21T04:51:17.993Z,73.20
2018-08-21T04:53:46.282Z,72.51
2018-08-21T04:56:14.537Z,71.41
2018-08-21T04:58:44.548Z,71.21
2018-08-21T05:01:12.846Z,71.05
2018-08-21T05:03:41.173Z,69.56
2018-08-21T05:06:09.486Z,69.67
2018-08-21T05:08:37.766Z,68.19
2018-08-21T05:11:10.648Z,66.80
2018-08-21T05:13:38.977Z,65.79
2018-08-21T05:16:07.281Z,64.97
2018-08-21T05:18:35.697Z,65.73
2018-08-21T05:21:04.241Z,65.41
2018-08-21T05:23:32.787Z,64.23
2018-08-21T05:26:02.321Z,63.22
2018-08-21T05:28:32.295Z,63.55
2018-08-21T05:31:06.525Z,63.82
2018-08-21T05:33:34.811Z,62.61
2018-08-21T05:36:05.061Z,62.05
2018-08-21T05:38:34.744Z,62.59
2018-08-21T05:41:05.409Z,62.89
2018-08-21T05:43:35.151Z,62.74
2018-08-21T05:46:04.420Z,61.42
2018-08-21T05:48:32.801Z,60.53
2018-08-21T05:51:01.313Z,60.55
2018-08-21T05:53:30.629Z,61.76
2018-08-21T05:55:59.579Z,60.35
2018-08-21T05:58:28.232Z,58.57
2018-08-21T06:00:56.645Z,60.26
2018-08-21T06:03:24.937Z,59.58
2018-08-21T06:05:53.229Z,57.61
2018-08-21T06:08:22.593Z,59.36
2018-08-21T06:10:50.852Z,59.07
2018-08-21T06:13:19.169Z,59.66
2018-08-21T06:15:48.017Z,59.59
2018-08-21T06:18:22.346Z,59.10
2018-08-21T06:20:55.549Z,58.26
2018-08-21T06:23:25.532Z,58.01
2018-08-21T06:25:53.757Z,57.34
2018-08-21T06:28:25.210Z,56.10
2018-08-21T06:30:53.493Z,56.34
2018-08-21T06:33:21.805Z,54.13
2018-08-21T06:35:50.325Z,55.09
2018-08-21T06:38:18.845Z,55.03
2018-08-21T06:40:47.390Z,54.89
2018-08-21T06:43:16.410Z,55.86
2018-08-21T06:45:44.710Z,55.90
2018-08-21T06:48:14.922Z,55.19
2018-08-21T06:50:44.797Z,54.64
2018-08-21T06:53:13.613Z,54.42
2018-08-21T06:55:42.070Z,54.00
2018-08-21T06:58:11.596Z,53.04
2018-08-21T07:00:41.033Z,52.57
2018-08-21T07:03:10.494Z,53.62
2018-08-21T07:05:39.877Z,53.87
2018-08-21T07:08:09.779Z,53.44
2018-08-21T07:10:38.120Z,52.55
2018-08-21T07:13:06.509Z,52.09
2018-08-21T07:15:34.842Z,51.90
2018-08-21T07:18:04.250Z,53.24
2018-08-21T07:20:34.281Z,51.56
2018-08-21T07:23:02.597Z,51.44
2018-08-21T07:25:31.057Z,51.34
2018-08-21T07:27:59.337Z,50.52
2018-08-21T07:30:35.251Z,48.43
2018-08-21T07:33:03.529Z,48.30
2018-08-21T07:35:31.879Z,48.09
2018-08-21T07:38:00.125Z,48.90
2018-08-21T07:40:28.527Z,49.74
2018-08-21T07:42:56.796Z,49.92
2018-08-21T07:45:25.395Z,50.47
2018-08-21T07:47:53.690Z,49.44
2018-08-21T07:50:22.007Z,49.18
2018-08-21T07:52:55.649Z,49.76
2018-08-21T07:55:24.172Z,49.81
2018-08-21T07:57:53.657Z,50.25
2018-08-21T08:00:22.975Z,49.29
2018-08-21T08:02:54.713Z,49.14
2018-08-21T08:05:25.361Z,48.91
2018-08-21T08:07:54.467Z,48.87
2018-08-21T08:10:24.586Z,48.20
2018-08-21T08:12:54.906Z,47.57
2018-08-21T08:15:23.237Z,47.58
2018-08-21T08:17:55.552Z,46.67
2018-08-21T08:20:25.033Z,48.03
2018-08-21T08:22:53.647Z,48.89
2018-08-21T08:25:21.929Z,49.08
2018-08-21T08:27:50.217Z,50.05
2018-08-21T08:30:18.979Z,49.00
2018-08-21T08:32:47.972Z,49.04
2018-08-21T08:35:17.245Z,47.99
2018-08-21T08:37:46.878Z,46.32
2018-08-21T08:40:20.433Z,46.37
2018-08-21T08:42:50.916Z,45.63
2018-08-21T08:45:23.535Z,45.88
2018-08-21T08:47:51.922Z,47.23
2018-08-21T08:50:20.177Z,48.31
2018-08-21T08:52:49.673Z,48.10
2018-08-21T08:55:17.954Z,48.08
2018-08-21T08:57:48.389Z,48.21
2018-08-21T09:00:18.295Z,47.46
2018-08-21T09:02:49.665Z,48.62
2018-08-21T09:05:18.279Z,46.88
2018-08-21T09:07:46.602Z,46.06
2018-08-21T09:10:14.878Z,45.78
2018-08-21T09:12:43.188Z,45.53
2018-08-21T09:15:11.593Z,46.30
2018-08-21T09:17:39.999Z,45.37
2018-08-21T09:20:10.409Z,43.90
2018-08-21T09:22:41.252Z,45.13
2018-08-21T09:25:09.557Z,46.15
2018-08-21T09:27:41.211Z,47.66
2018-08-21T09:30:12.750Z,47.71
2018-08-21T09:32:41.019Z,46.62
2018-08-21T09:35:09.318Z,46.77
2018-08-21T09:37:37.581Z,46.75
2018-08-21T09:40:05.923Z,46.65
2018-08-21T09:42:35.285Z,46.72
2018-08-21T09:45:03.614Z,46.65
2018-08-21T09:47:31.919Z,45.46
2018-08-21T09:50:02.309Z,44.08
2018-08-21T09:52:31.482Z,43.97
2018-08-21T09:55:04.918Z,42.67
2018-08-21T09:58:57.595Z,42.19
2018-08-21T10:01:31.057Z,43.23
2018-08-21T10:04:04.701Z,42.20
2018-08-21T10:06:33.068Z,42.88
2018-08-21T10:09:01.295Z,45.49
2018-08-21T10:11:30.034Z,43.69
2018-08-21T10:14:00.399Z,43.23
2018-08-21T10:16:28.711Z,43.08
2018-08-21T10:18:57.281Z,43.34
2018-08-21T10:21:27.716Z,43.01
2018-08-21T10:23:59.188Z,43.16
2018-08-21T10:26:37.617Z,42.61
2018-08-21T10:29:05.945Z,41.63
2018-08-21T10:31:36.565Z,41.51
2018-08-21T10:34:05.859Z,42.22
2018-08-21T10:36:34.545Z,41.67
2018-08-21T10:39:02.915Z,41.23
2018-08-21T10:41:31.174Z,42.01
2018-08-21T10:44:01.375Z,41.89
2018-08-21T10:46:29.664Z,44.32
2018-08-21T10:48:58.016Z,43.60
2018-08-21T10:51:26.274Z,43.68
2018-08-21T10:53:54.556Z,42.76
2018-08-21T10:56:22.962Z,42.30
2018-08-21T10:58:51.356Z,40.62
2018-08-21T11:01:19.689Z,40.68
2018-08-21T11:03:50.262Z,40.45
2018-08-21T11:06:18.550Z,40.28
2018-08-21T11:08:47.490Z,40.86
2018-08-21T11:11:15.773Z,40.99
2018-08-21T11:14:00.758Z,40.20
2018-08-21T11:16:30.405Z,39.58
2018-08-21T11:18:59.404Z,41.16
2018-08-21T11:21:28.024Z,41.85
2018-08-21T11:23:56.220Z,41.15
2018-08-21T11:26:24.534Z,38.05
2018-08-21T11:28:53.435Z,37.35
2018-08-21T11:31:21.796Z,37.82
2018-08-21T11:33:50.277Z,36.80
2018-08-21T11:36:19.214Z,37.73
2018-08-21T11:38:47.506Z,37.97
2018-08-21T11:41:15.831Z,37.58
2018-08-21T11:43:44.165Z,37.79
2018-08-21T11:46:12.474Z,38.71
2018-08-21T11:48:40.758Z,39.26
2018-08-21T11:51:09.921Z,37.67
2018-08-21T11:53:38.202Z,38.67
2018-08-21T11:56:06.501Z,39.09
2018-08-21T11:58:34.766Z,38.20
2018-08-21T12:01:03.090Z,38.98
2018-08-21T12:03:31.488Z,38.84
2018-08-21T12:05:59.713Z,39.07
2018-08-21T12:08:28.057Z,39.90
2018-08-21T12:10:56.360Z,39.93
2018-08-21T12:13:24.933Z,39.65
2018-08-21T12:15:53.226Z,38.74
2018-08-21T12:18:21.517Z,39.15
2018-08-21T12:20:49.778Z,38.80
2018-08-21T12:23:18.073Z,39.51
2018-08-21T12:25:46.329Z,38.97
2018-08-21T12:28:14.701Z,39.32
2018-08-21T12:30:42.975Z,39.64
2018-08-21T12:33:11.291Z,39.07
2018-08-21T12:35:39.581Z,40.46
2018-08-21T12:38:07.901Z,40.08
2018-08-21T12:40:36.565Z,38.10
2018-08-21T12:43:04.869Z,37.78
2018-08-21T12:45:33.157Z,37.82
2018-08-21T12:48:01.909Z,36.92
2018-08-21T12:50:30.373Z,37.91
2018-08-21T12:52:58.685Z,38.43
2018-08-21T12:55:26.993Z,37.94
2018-08-21T12:57:55.289Z,37.47
2018-08-21T13:00:23.542Z,36.28
2018-08-21T13:02:51.913Z,36.69
2018-08-21T13:05:20.181Z,35.96
2018-08-21T13:07:48.469Z,35.39
2018-08-21T13:10:16.777Z,35.08
2018-08-21T13:12:45.112Z,35.32
2018-08-21T13:15:13.397Z,34.81
2018-08-21T13:17:41.677Z,34.04
2018-08-21T13:20:09.965Z,34.33
2018-08-21T13:22:38.257Z,36.33
2018-08-21T13:25:06.590Z,36.22
2018-08-21T13:27:34.872Z,35.43
2018-08-21T13:30:03.270Z,34.29
2018-08-21T13:32:31.583Z,32.38
2018-08-21T13:34:59.897Z,31.18
2018-08-21T13:37:28.181Z,31.29
2018-08-21T13:39:56.665Z,30.37
2018-08-21T13:42:25.409Z,29.36
2018-08-21T13:44:53.921Z,29.61
2018-08-21T13:47:22.185Z,29.98
2018-08-21T13:49:50.562Z,30.79
2018-08-21T13:52:18.929Z,31.65
2018-08-21T13:54:47.237Z,31.11
2018-08-21T13:57:15.517Z,31.56
2018-08-21T13:59:43.872Z,35.74
2018-08-21T14:02:12.178Z,35.19
2018-08-21T14:04:40.481Z,33.92
2018-08-21T14:07:08.786Z,32.80
2018-08-21T14:09:37.196Z,32.05
2018-08-21T14:12:05.485Z,30.83
2018-08-21T14:14:33.773Z,30.29
2018-08-21T14:17:02.134Z,30.72
2018-08-21T14:19:30.404Z,29.80
2018-08-21T14:21:58.713Z,29.20
2018-08-21T14:24:27.013Z,29.46
2018-08-21T14:26:55.299Z,28.34
2018-08-21T14:29:23.601Z,29.24
2018-08-21T14:31:51.893Z,30.49
2018-08-21T14:34:20.186Z,30.40
2018-08-21T14:36:48.540Z,30.06
2018-08-21T14:39:16.885Z,29.10
2018-08-21T14:41:45.181Z,24.89
2018-08-21T14:44:13.445Z,21.11
2018-08-21T14:46:41.765Z,19.68
2018-08-21T14:49:10.041Z,21.41
2018-08-21T14:51:38.398Z,24.91
2018-08-21T14:54:06.654Z,26.89
2018-08-21T14:56:34.949Z,28.02
2018-08-21T14:59:03.260Z,30.35
2018-08-21T15:01:31.654Z,32.07
2018-08-21T15:03:59.973Z,33.01
2018-08-21T15:06:28.505Z,32.13
2018-08-21T15:08:56.842Z,28.63
2018-08-21T15:11:25.185Z,21.35
2018-08-21T15:13:53.818Z,17.89
2018-08-21T15:16:22.125Z,17.32
2018-08-21T15:18:50.575Z,18.64
2018-08-21T15:21:18.928Z,17.96
2018-08-21T15:23:47.241Z,17.02
2018-08-21T15:26:15.521Z,14.73
2018-08-21T15:28:43.863Z,13.39
2018-08-21T15:31:12.177Z,12.64
2018-08-21T15:33:40.550Z,12.93
2018-08-21T15:36:09.389Z,12.81
2018-08-21T15:38:37.689Z,11.56
2018-08-21T15:41:06.034Z,10.94
2018-08-21T15:43:34.510Z,11.22
2018-08-21T15:46:02.822Z,11.04
2018-08-21T15:48:31.135Z,12.00
2018-08-21T15:50:59.432Z,14.83
2018-08-21T15:53:28.193Z,18.70
2018-08-21T15:55:56.753Z,21.70
2018-08-21T15:58:25.356Z,23.96
2018-08-21T16:00:53.589Z,27.18
2018-08-21T16:03:21.905Z,28.05
2018-08-21T16:05:50.170Z,28.09
2018-08-21T16:08:18.548Z,21.97
2018-08-21T16:10:46.778Z,18.50
2018-08-21T16:13:15.048Z,16.12
2018-08-21T16:15:43.336Z,14.87
2018-08-21T16:18:11.709Z,15.80
2018-08-21T16:20:40.009Z,14.01
2018-08-21T16:23:08.287Z,13.67
2018-08-21T16:25:36.581Z,15.19
2018-08-21T16:28:04.869Z,15.11
2018-08-21T16:30:33.172Z,13.48
2018-08-21T16:33:01.466Z,13.45
2018-08-21T16:35:29.757Z,13.36
2018-08-21T16:37:58.067Z,15.04
2018-08-21T16:40:27.636Z,15.63
2018-08-21T16:42:55.723Z,14.39
2018-08-21T16:45:24.025Z,13.77
2018-08-21T16:47:52.301Z,14.62
2018-08-21T16:50:20.667Z,14.71
2018-08-21T16:52:48.954Z,17.99
2018-08-21T16:55:17.272Z,21.03
2018-08-21T16:57:45.569Z,24.48
2018-08-21T17:00:14.953Z,27.06
2018-08-21T17:02:43.237Z,30.03
2018-08-21T17:05:11.521Z,30.74
2018-08-21T17:07:39.773Z,32.59
2018-08-21T17:10:09.306Z,32.97
2018-08-21T17:12:37.810Z,33.34
2018-08-21T17:15:06.685Z,33.93
2018-08-21T17:17:35.113Z,34.57
2018-08-21T17:20:03.429Z,35.64
2018-08-21T17:22:32.172Z,35.31
2018-08-21T17:25:00.537Z,35.90
2018-08-21T17:27:28.834Z,36.64
2018-08-21T17:29:57.103Z,37.65
2018-08-21T17:32:25.397Z,38.06
2018-08-21T17:34:53.690Z,38.35
2018-08-21T17:37:21.977Z,38.43
2018-08-21T17:39:50.241Z,39.02
2018-08-21T17:42:18.532Z,38.54
2018-08-21T17:44:46.823Z,39.09
2018-08-21T17:47:15.109Z,39.63
2018-08-21T17:49:43.372Z,39.15
2018-08-21T17:52:11.683Z,39.28
2018-08-21T17:54:39.945Z,40.60
2018-08-21T17:57:08.236Z,40.08
2018-08-21T17:59:36.523Z,39.76
2018-08-21T18:02:05.988Z,40.72
2018-08-21T18:04:34.317Z,40.58
2018-08-21T18:07:03.674Z,42.04
2018-08-21T18:09:33.689Z,42.40
2018-08-21T18:12:02.027Z,42.17
2018-08-21T18:14:30.364Z,42.31
2018-08-21T18:16:58.664Z,42.24
2018-08-21T18:19:26.931Z,42.89
2018-08-21T18:21:55.229Z,42.92
2018-08-21T18:24:23.521Z,43.66
2018-08-21T18:26:51.788Z,44.39
2018-08-21T18:29:20.345Z,44.28
2018-08-21T18:31:48.620Z,44.80
2018-08-21T18:34:16.901Z,45.66
2018-08-21T18:36:45.210Z,45.27
2018-08-21T18:39:14.097Z,45.92
2018-08-21T18:41:42.363Z,45.86
2018-08-21T18:44:10.641Z,46.37
2018-08-21T18:46:38.901Z,46.50
2018-08-21T18:49:07.193Z,47.43
2018-08-21T18:51:35.636Z,48.16
2018-08-21T18:54:03.885Z,48.19
2018-08-21T18:56:32.161Z,48.26
2018-08-21T18:59:00.558Z,49.09
2018-08-21T19:01:28.809Z,48.83
2018-08-21T19:03:57.264Z,48.85
2018-08-21T19:06:25.468Z,48.59
2018-08-21T19:08:53.963Z,49.04
2018-08-21T19:11:22.293Z,49.71
2018-08-21T19:13:50.568Z,49.87
2018-08-21T19:16:18.853Z,49.96
2018-08-21T19:18:47.129Z,50.50
2018-08-21T19:21:15.417Z,50.32
2018-08-21T19:23:43.783Z,50.39
2018-08-21T19:26:12.068Z,50.56
2018-08-21T19:28:40.349Z,50.76
2018-08-21T19:31:08.643Z,50.71
2018-08-21T19:33:36.905Z,51.01
2018-08-21T19:36:05.213Z,51.12
2018-08-21T19:38:33.479Z,51.15
2018-08-21T19:41:02.129Z,50.46
2018-08-21T19:43:30.773Z,50.72
2018-08-21T19:45:59.079Z,50.69
2018-08-21T19:48:27.397Z,50.09
2018-08-21T19:50:55.667Z,49.85
2018-08-21T19:53:23.969Z,50.36
2018-08-21T19:55:52.237Z,50.65
2018-08-21T19:58:20.583Z,50.28
2018-08-21T20:00:48.814Z,50.54
2018-08-21T20:03:17.245Z,50.69
2018-08-21T20:05:45.590Z,50.91
2018-08-21T20:08:13.892Z,51.08
2018-08-21T20:10:42.246Z,51.66
2018-08-21T20:13:10.536Z,51.12
2018-08-21T20:15:38.805Z,51.14
2018-08-21T20:18:07.125Z,51.70
2018-08-21T20:20:35.393Z,51.99
2018-08-21T20:23:03.761Z,52.12
2018-08-21T20:25:32.016Z,52.24
2018-08-21T20:28:00.293Z,52.43
2018-08-21T20:30:28.593Z,53.09
2018-08-21T20:32:56.966Z,53.45
2018-08-21T20:35:25.277Z,52.99
2018-08-21T20:37:53.559Z,53.36
2018-08-21T20:40:26.215Z,53.37
2018-08-21T20:42:54.502Z,53.73
2018-08-21T20:45:22.842Z,53.90
2018-08-21T20:47:51.208Z,54.83
2018-08-21T20:50:19.509Z,54.99
2018-08-21T20:52:47.889Z,55.16
2018-08-21T20:55:16.260Z,55.37
2018-08-21T20:57:46.741Z,55.59
2018-08-21T21:00:15.141Z,55.59
2018-08-21T21:02:43.516Z,56.11
2018-08-21T21:05:11.785Z,56.52
2018-08-21T21:07:41.121Z,56.34
2018-08-21T21:10:09.412Z,56.78
2018-08-21T21:12:47.043Z,56.93
2018-08-21T21:15:27.361Z,57.45
2018-08-21T21:18:06.997Z,57.65
2018-08-21T21:20:47.577Z,57.76
2018-08-21T21:23:18.833Z,58.27
2018-08-21T21:25:47.161Z,57.94
2018-08-21T21:28:16.613Z,58.53
2018-08-21T21:30:45.172Z,59.09
2018-08-21T21:33:13.997Z,58.91
2018-08-21T21:35:42.410Z,59.49
2018-08-21T21:38:10.946Z,59.78
2018-08-21T21:40:39.358Z,60.24
2018-08-21T21:43:07.660Z,60.08
2018-08-21T21:45:36.409Z,61.13
2018-08-21T21:48:05.591Z,61.06
2018-08-21T21:50:34.051Z,60.80
2018-08-21T21:53:03.557Z,61.40
2018-08-21T21:55:31.907Z,61.99
2018-08-21T21:58:00.203Z,61.60
2018-08-21T22:00:29.397Z,62.35
2018-08-21T22:02:57.844Z,62.62
2018-08-21T22:05:26.916Z,63.04
2018-08-21T22:07:55.217Z,63.12
2018-08-21T22:10:23.828Z,62.57
2018-08-21T22:12:52.229Z,63.69
2018-08-21T22:15:20.558Z,63.94
2018-08-21T22:17:48.934Z,63.58
2018-08-21T22:20:17.229Z,63.77
2018-08-21T22:22:45.498Z,63.93
2018-08-21T22:25:13.893Z,64.17
2018-08-21T22:27:42.177Z,65.07
2018-08-21T22:30:11.249Z,65.00
2018-08-21T22:32:40.561Z,65.12
2018-08-21T22:35:08.925Z,65.07
2018-08-21T22:37:37.210Z,65.02
2018-08-21T22:40:05.554Z,65.12
2018-08-21T22:42:33.965Z,65.79
2018-08-21T22:45:02.310Z,65.76
2018-08-21T22:47:30.613Z,65.75
2018-08-21T22:49:58.882Z,65.38
2018-08-21T22:52:27.165Z,65.89
2018-08-21T22:54:55.625Z,66.02
2018-08-21T22:57:23.933Z,66.07
2018-08-21T22:59:52.199Z,66.36
2018-08-21T23:02:20.485Z,66.27
2018-08-21T23:04:50.789Z,65.88
2018-08-21T23:07:19.181Z,65.94
2018-08-21T23:09:47.534Z,65.26
2018-08-21T23:12:15.835Z,65.85
2018-08-21T23:14:44.151Z,65.36
2018-08-21T23:17:12.511Z,64.60
2018-08-21T23:19:40.826Z,64.89
2018-08-21T23:22:09.128Z,63.91
2018-08-21T23:24:37.425Z,63.13
2018-08-21T23:27:06.629Z,62.70
2018-08-21T23:29:34.923Z,62.89
2018-08-21T23:32:03.254Z,61.92
2018-08-21T23:34:31.557Z,61.68
2018-08-21T23:36:59.818Z,61.48
2018-08-21T23:39:28.495Z,61.76
2018-08-21T23:41:57.420Z,61.32
2018-08-21T23:44:25.796Z,61.62
2018-08-21T23:46:54.069Z,61.46
2018-08-21T23:49:22.377Z,60.69
2018-08-21T23:51:50.653Z,60.97
2018-08-21T23:54:18.965Z,60.92
2018-08-21T23:56:47.251Z,60.93
2018-08-21T23:59:15.577Z,60.83
